M I D A S
Marine Information and Data Acquisition System
Tripno 641 of the Zeeleeuw from 2004-02-03 07:40:56 to 2004-02-03 15:59:30
Back to CruiseResearch ActivitiesStationsMapUnderway DataData graphs

EquipmentUnitsComment
TimeDGPSUTC
LatitudeDGPSDM.mWGS84
LongitudeDGPSDM.mWGS84
HeadingGyrodeg 
SOGDGPSknotsSpeed over ground
COGDGPSdegCourse over ground
DepthEcho soundermeters200 kHz
Missing or incorrect values are displayed as -999
Navigation data collected by the RV Zeeleeuw from 2004-02-03 07:40:56 to 2004-02-03 15:59:30
Time Latitude Longitude Heading SOG COG Depth
2004-02-03 07:41:59 51°13.592 2°56.107 117.9 0.1 187 7.7
2004-02-03 07:43:00 51°13.601 2°56.07 117.5 2.6 294 -999
2004-02-03 07:44:00 51°13.626 2°55.986 116.2 3.9 294 -999
2004-02-03 07:45:00 51°13.655 2°55.882 112.9 4.6 292 -999
2004-02-03 07:45:59 51°13.673 2°55.779 95.8 2.6 281 11
2004-02-03 07:46:59 51°13.707 2°55.784 6.7 4.5 358 13.1
2004-02-03 07:47:59 51°13.774 2°55.694 319.2 6 316 10.2
2004-02-03 07:48:59 51°13.874 2°55.596 339.5 7.7 335 10.4
2004-02-03 07:49:59 51°13.995 2°55.507 341.7 8.2 336 10.1
2004-02-03 07:50:59 51°14.121 2°55.418 340.6 8.3 334 10.2
2004-02-03 07:51:59 51°14.214 2°55.324 326.1 5.5 321 10.4
2004-02-03 07:52:59 51°14.272 2°55.235 317.5 4.4 312 10.8
2004-02-03 07:53:59 51°14.316 2°55.151 315.1 4.3 309 10.9
2004-02-03 07:54:59 51°14.407 2°55.018 327.2 9.9 326 11.3
2004-02-03 07:55:59 51°14.569 2°54.891 335.9 11.2 333 10.3
2004-02-03 07:56:59 51°14.705 2°54.773 332 8.3 331 10.2
2004-02-03 07:57:59 51°14.827 2°54.669 332.1 10.2 331 10
2004-02-03 07:58:59 51°15.002 2°54.503 332.6 13.2 331 9.2
2004-02-03 07:59:59 51°15.197 2°54.326 332.4 13.7 330 9.3
2004-02-03 08:01:00 51°15.403 2°54.143 334.4 14 330 10.2
2004-02-03 08:01:59 51°15.603 2°53.965 334.5 14.2 331 11
2004-02-03 08:03:00 51°15.807 2°53.775 334.6 13.9 330 11.7
2004-02-03 08:03:58 51°16.002 2°53.597 334.1 13.9 330 12.4
2004-02-03 08:04:59 51°16.204 2°53.411 334.1 13.9 330 12.8
2004-02-03 08:05:59 51°16.403 2°53.232 334.5 13.7 331 13
2004-02-03 08:06:59 51°16.599 2°53.052 334.6 13.5 330 12.5
2004-02-03 08:07:59 51°16.799 2°52.887 342.8 13.4 339 10.4
2004-02-03 08:08:58 51°17.007 2°52.77 345.2 13.7 341 10.6
2004-02-03 08:09:58 51°17.224 2°52.657 349.7 13.6 346 10.5
2004-02-03 08:10:59 51°17.449 2°52.57 351.2 13.7 349 11.2
2004-02-03 08:11:58 51°17.673 2°52.542 0.4 13.7 355 11
2004-02-03 08:12:59 51°17.905 2°52.515 1 13.8 356 11.2
2004-02-03 08:13:59 51°18.135 2°52.529 10.6 13.9 11 11.6
2004-02-03 08:14:59 51°18.335 2°52.701 46.9 14.2 45 11.9
2004-02-03 08:15:59 51°18.481 2°52.992 58.7 14.2 52 12.2
2004-02-03 08:16:59 51°18.599 2°53.32 68.9 14.7 65 12.1
2004-02-03 08:17:59 51°18.692 2°53.67 70.4 14.8 62 12.1
2004-02-03 08:18:59 51°18.788 2°54.014 71.1 14.5 69 12.2
2004-02-03 08:19:59 51°18.882 2°54.359 71.8 13.9 69 12.3
2004-02-03 08:20:58 51°18.977 2°54.7 69.8 14.5 67 12.2
2004-02-03 08:21:59 51°19.081 2°55.056 71.6 14.7 67 12.2
2004-02-03 08:22:59 51°19.183 2°55.403 70 14.4 68 12.2
2004-02-03 08:23:59 51°19.279 2°55.758 69.6 14.7 67 12.1
2004-02-03 08:25:00 51°19.371 2°56.118 71.5 14.2 69 12.1
2004-02-03 08:26:00 51°19.469 2°56.478 72.3 15 67 11.8
2004-02-03 08:26:59 51°19.562 2°56.83 71.5 15 64 11.8
2004-02-03 08:27:59 51°19.657 2°57.188 71.2 14.8 69 11.7
2004-02-03 08:28:59 51°19.749 2°57.55 72.3 14.6 70 11.8
2004-02-03 08:29:59 51°19.843 2°57.911 69.9 14.5 67 11.5
2004-02-03 08:30:59 51°19.937 2°58.274 74.2 14.4 70 11.5
2004-02-03 08:31:59 51°20.025 2°58.644 77.9 15.1 73 11.3
2004-02-03 08:32:59 51°20.107 2°59.019 72.6 15.3 67 11.1
2004-02-03 08:33:59 51°20.203 2°59.38 70.7 14.5 68 11.2
2004-02-03 08:34:59 51°20.286 2°59.737 74 14 70 11.2
2004-02-03 08:35:59 51°20.379 3°0.1 70.5 14.7 68 11.1
2004-02-03 08:36:59 51°20.464 3°0.467 74.1 14.8 71 11
2004-02-03 08:37:59 51°20.55 3°0.833 75 14.6 71 11
2004-02-03 08:38:59 51°20.635 3°1.204 74.8 15 71 11
2004-02-03 08:39:59 51°20.721 3°1.578 74.6 14.9 73 11
2004-02-03 08:40:59 51°20.813 3°1.948 72.4 15.4 67 10.9
2004-02-03 08:41:59 51°20.911 3°2.316 66.6 14.9 65 11.3
2004-02-03 08:42:59 51°21.009 3°2.678 69.4 14.7 66 11.4
2004-02-03 08:43:59 51°21.11 3°3.041 69.7 15 68 11.3
2004-02-03 08:44:59 51°21.198 3°3.418 75 15.1 69 11.5
2004-02-03 08:45:58 51°21.289 3°3.784 74 15.3 70 11.5
2004-02-03 08:46:58 51°21.383 3°4.16 73.4 15.4 71 11.6
2004-02-03 08:47:59 51°21.476 3°4.542 72.3 15.2 70 11.9
2004-02-03 08:49:00 51°21.562 3°4.929 77.7 15.4 72 11.9
2004-02-03 08:49:59 51°21.642 3°5.306 77.8 15.1 74 12
2004-02-03 08:50:59 51°21.721 3°5.686 75.3 15.2 71 12.2
2004-02-03 08:51:59 51°21.797 3°6.071 76.8 15.1 71 12.3
2004-02-03 08:52:59 51°21.871 3°6.457 79.7 15.2 74 12.3
2004-02-03 08:53:58 51°21.945 3°6.837 76.1 15.2 74 12.7
2004-02-03 08:54:59 51°22.013 3°7.24 85.8 15.8 80 12.7
2004-02-03 08:55:59 51°22.05 3°7.647 86.3 15.9 82 12.8
2004-02-03 08:56:59 51°22.104 3°8.049 80.3 15.5 78 12.9
2004-02-03 08:57:59 51°22.164 3°8.446 82.3 15.2 78 13.2
2004-02-03 08:58:59 51°22.224 3°8.849 81.1 15.7 76 13.4
2004-02-03 08:59:59 51°22.281 3°9.253 82.7 15.5 79 13.8
2004-02-03 09:00:59 51°22.331 3°9.66 83.4 15.9 80 14.2
2004-02-03 09:01:59 51°22.383 3°10.07 83.4 16.1 83 14.6
2004-02-03 09:02:59 51°22.433 3°10.479 83.5 15.4 81 18.8
2004-02-03 09:03:59 51°22.468 3°10.892 86.8 15.6 84 16.4
2004-02-03 09:04:59 51°22.495 3°11.316 88.4 15.9 85 16.4
2004-02-03 09:05:59 51°22.524 3°11.733 86.9 15.6 83 15.8
2004-02-03 09:06:59 51°22.551 3°12.16 90.3 16 86 15.2
2004-02-03 09:07:59 51°22.567 3°12.588 90.8 16.1 84 14.7
2004-02-03 09:08:59 51°22.573 3°12.995 96.1 12.6 92 13.9
2004-02-03 09:10:00 51°22.565 3°13.236 88.8 6.5 83 13.6
2004-02-03 09:10:59 51°22.573 3°13.322 90.4 2 77 13.5
2004-02-03 09:11:59 51°22.583 3°13.379 91.5 2.4 78 4.9
2004-02-03 09:12:59 51°22.59 3°13.481 97.7 4.5 85 13.1
2004-02-03 09:13:59 51°22.595 3°13.598 103.8 4.4 87 12.9
2004-02-03 09:14:59 51°22.597 3°13.708 108.6 4 89 12.6
2004-02-03 09:15:59 51°22.597 3°13.81 110.5 3.8 89 12.3
2004-02-03 09:17:00 51°22.599 3°13.911 106.8 3.7 87 12.1
2004-02-03 09:17:59 51°22.602 3°14.022 98.7 4.5 88 11.7
2004-02-03 09:18:59 51°22.604 3°14.141 102 4.4 89 11.6
2004-02-03 09:19:59 51°22.608 3°14.256 96.3 4.3 86 11.3
2004-02-03 09:20:59 51°22.616 3°14.372 88.8 4.5 85 11.3
2004-02-03 09:21:59 51°22.626 3°14.493 85.7 4.7 81 11
2004-02-03 09:22:59 51°22.639 3°14.615 81.4 4.7 79 10.9
2004-02-03 09:23:59 51°22.653 3°14.736 82.4 4.6 80 10.9
2004-02-03 09:24:59 51°22.667 3°14.856 81.2 4.6 80 10.8
2004-02-03 09:25:59 51°22.682 3°14.975 81.1 4.6 78 10.6
2004-02-03 09:26:59 51°22.695 3°15.094 84.6 4.5 80 10.6
2004-02-03 09:27:59 51°22.708 3°15.213 85.6 4.6 80 10.4
2004-02-03 09:28:59 51°22.722 3°15.332 80.2 4.5 77 10.3
2004-02-03 09:29:59 51°22.742 3°15.449 76.3 4.6 75 10
2004-02-03 09:30:59 51°22.763 3°15.567 73.6 4.6 72 9.7
2004-02-03 09:31:59 51°22.785 3°15.686 71.8 4.7 71 9.5
2004-02-03 09:32:59 51°22.809 3°15.807 66.9 4.9 73 9.4
2004-02-03 09:33:59 51°22.838 3°15.929 60.2 4.9 69 9.8
2004-02-03 09:34:59 51°22.868 3°16.047 57.3 4.8 68 10.1
2004-02-03 09:35:59 51°22.9 3°16.163 58.4 4.8 68 10
2004-02-03 09:36:59 51°22.929 3°16.282 60.2 4.8 69 10.1
2004-02-03 09:38:00 51°22.958 3°16.405 69 4.8 72 10.1
2004-02-03 09:38:59 51°22.983 3°16.523 70 4.7 70 10.1
2004-02-03 09:39:59 51°23.01 3°16.638 65.4 4.6 66 10
2004-02-03 09:40:59 51°23.037 3°16.752 67.9 4.6 70 10.1
2004-02-03 09:42:00 51°23.058 3°16.867 84.1 4.3 75 10
2004-02-03 09:42:59 51°23.073 3°16.973 94.8 4 78 10
2004-02-03 09:43:59 51°23.083 3°17.075 103.7 3.8 81 10
2004-02-03 09:45:18 51°23.091 3°17.218 115.2 4.4 90 10
2004-02-03 09:46:34 51°23.096 3°17.356 117.8 4 86 10.3
2004-02-03 09:47:34 51°23.095 3°17.468 126.8 4.4 97 10.1
2004-02-03 09:48:34 51°23.075 3°17.565 169.1 3.1 121 9.9
2004-02-03 09:49:35 51°23.052 3°17.612 216 1.4 139 9.9
2004-02-03 09:50:34 51°23.05 3°17.617 265.9 0.6 333 9.8
2004-02-03 09:51:34 51°23.061 3°17.596 269 1.1 305 9.9
2004-02-03 09:52:34 51°23.074 3°17.573 275.3 1.2 318 9.9
2004-02-03 09:53:34 51°23.092 3°17.547 278.8 1.6 318 10.1
2004-02-03 09:54:34 51°23.117 3°17.519 290.3 2.1 329 10.2
2004-02-03 09:55:34 51°23.151 3°17.496 294.6 2.3 340 10.3
2004-02-03 09:56:34 51°23.185 3°17.475 296.1 2.1 339 10.3
2004-02-03 09:57:34 51°23.218 3°17.453 294.9 2.1 334 10.6
2004-02-03 09:58:34 51°23.248 3°17.427 296.4 2.2 333 10.6
2004-02-03 09:59:34 51°23.284 3°17.4 301.4 2.4 338 10.9
2004-02-03 10:00:35 51°23.323 3°17.379 307 2.7 343 11.3
2004-02-03 10:01:35 51°23.365 3°17.363 309.4 2.5 346 11.3
2004-02-03 10:02:35 51°23.404 3°17.341 310.6 2.6 343 11.3
2004-02-03 10:03:35 51°23.445 3°17.319 311.8 2.6 341 11.4
2004-02-03 10:04:35 51°23.491 3°17.297 318.7 3 348 11.6
2004-02-03 10:05:34 51°23.545 3°17.325 20.9 4.1 41 12
2004-02-03 10:06:34 51°23.575 3°17.429 86.7 4.4 85 12.3
2004-02-03 10:07:35 51°23.562 3°17.536 141.2 3.8 113 12.1
2004-02-03 10:08:34 51°23.529 3°17.597 194.2 2.5 154 12
2004-02-03 10:09:34 51°23.495 3°17.595 227.9 2 201 11.9
2004-02-03 10:10:34 51°23.475 3°17.561 248.7 1.8 241 11.8
2004-02-03 10:11:34 51°23.458 3°17.517 248 2.1 239 11.6
2004-02-03 10:12:34 51°23.447 3°17.465 260.8 2 267 11.6
2004-02-03 10:13:34 51°23.452 3°17.419 271.7 1.3 291 11.4
2004-02-03 10:14:34 51°23.463 3°17.39 276.3 1.3 307 11.7
2004-02-03 10:15:35 51°23.477 3°17.367 278 1.2 317 11.7
2004-02-03 10:16:35 51°23.492 3°17.347 278.5 1.2 323 11.9
2004-02-03 10:17:34 51°23.508 3°17.328 279.9 1.2 323 12
2004-02-03 10:18:35 51°23.523 3°17.327 280.6 0.9 20 12
2004-02-03 10:19:34 51°23.537 3°17.34 277.6 1.1 37 12.1
2004-02-03 10:20:34 51°23.552 3°17.364 278.3 1.3 52 12.3
2004-02-03 10:21:34 51°23.567 3°17.379 278.4 2.1 298 12.3
2004-02-03 10:22:34 51°23.543 3°17.208 257.7 10 254 11.9
2004-02-03 10:23:35 51°23.494 3°16.909 258.5 11.8 254 11.7
2004-02-03 10:24:35 51°23.432 3°16.607 256.4 12 253 11.4
2004-02-03 10:25:34 51°23.374 3°16.306 257 12 253 10.9
2004-02-03 10:26:34 51°23.317 3°16.001 257.4 12 253 10.3
2004-02-03 10:27:34 51°23.262 3°15.692 258.3 12.1 254 10.4
2004-02-03 10:28:34 51°23.207 3°15.384 258.4 12.1 254 10.9
2004-02-03 10:29:35 51°23.149 3°15.073 258 12 254 11.1
2004-02-03 10:30:34 51°23.094 3°14.773 258.7 12 254 11.5
2004-02-03 10:31:34 51°23.032 3°14.472 254.4 11.9 249 11.9
2004-02-03 10:32:35 51°22.96 3°14.174 254.6 11.8 249 12.5
2004-02-03 10:33:34 51°22.89 3°13.887 254.3 11.8 249 12.7
2004-02-03 10:34:34 51°22.806 3°13.602 248.3 11.9 243 13.1
2004-02-03 10:35:34 51°22.753 3°13.307 266.9 11.5 263 13.5
2004-02-03 10:36:34 51°22.728 3°13 265.5 11.7 262 14.5
2004-02-03 10:37:35 51°22.703 3°12.688 265.8 11.6 263 14.8
2004-02-03 10:38:34 51°22.678 3°12.387 265.1 11.7 262 15.5
2004-02-03 10:39:34 51°22.654 3°12.079 265.7 11.7 263 15.9
2004-02-03 10:40:35 51°22.63 3°11.763 265.7 11.8 263 16.3
2004-02-03 10:41:35 51°22.606 3°11.45 265.5 11.9 263 16.4
2004-02-03 10:42:34 51°22.583 3°11.141 264.9 12 263 16.7
2004-02-03 10:43:34 51°22.56 3°10.827 265.7 11.9 264 16.9
2004-02-03 10:44:35 51°22.526 3°10.506 261.3 12.1 258 17.5
2004-02-03 10:45:35 51°22.481 3°10.191 259.8 12.2 258 19.6
2004-02-03 10:46:34 51°22.422 3°9.891 253.4 12 252 15.4
2004-02-03 10:47:35 51°22.368 3°9.58 258.6 12.1 256 15.1
2004-02-03 10:48:35 51°22.318 3°9.27 258.7 12 256 14.6
2004-02-03 10:49:34 51°22.275 3°8.963 261.2 12.1 262 14.6
2004-02-03 10:50:34 51°22.283 3°8.64 276.3 12.2 276 14.3
2004-02-03 10:51:34 51°22.299 3°8.315 275.1 12.3 274 14.4
2004-02-03 10:52:34 51°22.31 3°7.991 273.1 12.1 273 14.3
2004-02-03 10:53:35 51°22.316 3°7.663 271.2 12.2 270 14.3
2004-02-03 10:54:35 51°22.313 3°7.341 271.1 12.1 270 14.2
2004-02-03 10:55:35 51°22.299 3°7.023 264.1 12 262 14.3
2004-02-03 10:56:34 51°22.269 3°6.713 262.6 11.9 257 14.2
2004-02-03 10:57:34 51°22.212 3°6.408 255.1 12 252 14
2004-02-03 10:58:35 51°22.153 3°6.099 256.2 12 254 14
2004-02-03 10:59:35 51°22.095 3°5.793 255.4 12.1 254 13.9
2004-02-03 11:00:34 51°22.042 3°5.491 256.1 12 254 13.8
2004-02-03 11:01:34 51°21.985 3°5.183 255.7 12.1 252 13.8
2004-02-03 11:02:34 51°21.894 3°4.899 243.7 11.8 241 13.5
2004-02-03 11:03:34 51°21.8 3°4.624 245.3 11.9 242 13.4
2004-02-03 11:04:35 51°21.703 3°4.338 244.6 12.1 242 13.3
2004-02-03 11:05:34 51°21.61 3°4.059 245.3 12.1 242 13.2
2004-02-03 11:06:35 51°21.514 3°3.772 245.6 12 245 13.1
2004-02-03 11:07:34 51°21.436 3°3.488 249.3 12 247 13
2004-02-03 11:08:34 51°21.368 3°3.186 254.1 12 252 12.8
2004-02-03 11:09:34 51°21.305 3°2.882 253.5 12.1 252 12.9
2004-02-03 11:10:34 51°21.254 3°2.574 260.9 12.2 260 13
2004-02-03 11:11:35 51°21.218 3°2.253 260.7 11.9 259 12.8
2004-02-03 11:12:35 51°21.183 3°1.937 261.3 11.9 260 12.6
2004-02-03 11:13:34 51°21.147 3°1.627 260.5 12.1 259 12.7
2004-02-03 11:14:35 51°21.109 3°1.308 260.5 12 260 12.7
2004-02-03 11:15:34 51°21.072 3°0.998 260.6 12.1 260 12.8
2004-02-03 11:16:34 51°21.033 3°0.679 259.8 12.2 258 12.8
2004-02-03 11:17:35 51°20.995 3°0.355 260.4 12.1 260 13.1
2004-02-03 11:18:35 51°20.951 3°0.139 251 7.3 251 13
2004-02-03 11:19:35 51°20.942 2°59.973 258.1 4.2 261 13.3
2004-02-03 11:21:04 51°20.932 2°59.893 247 1 277 29.9
2004-02-03 11:22:04 51°20.938 2°59.879 249.4 0.5 327 13.5
2004-02-03 11:23:04 51°20.946 2°59.851 262.1 1.7 288 13.3
2004-02-03 11:24:03 51°20.967 2°59.793 289.5 3.1 311 13.4
2004-02-03 11:25:04 51°21.019 2°59.749 326.6 3.7 347 13.3
2004-02-03 11:26:04 51°21.083 2°59.753 1.4 3.9 14 13.3
2004-02-03 11:27:04 51°21.135 2°59.814 49.5 3.9 51 13.5
2004-02-03 11:28:03 51°21.168 2°59.902 76.2 4 66 13.5
2004-02-03 11:29:04 51°21.188 2°59.997 92.9 3.4 79 13.4
2004-02-03 11:30:04 51°21.202 3°0.089 96.6 3.5 78 13.5
2004-02-03 11:31:04 51°21.214 3°0.182 99.2 3.6 79 13.4
2004-02-03 11:32:04 51°21.227 3°0.274 95.8 3.5 76 13.4
2004-02-03 11:33:04 51°21.242 3°0.365 94.9 3.5 75 13.4
2004-02-03 11:34:04 51°21.257 3°0.457 91.2 3.6 72 13.3
2004-02-03 11:35:04 51°21.274 3°0.55 90.7 3.6 75 13.4
2004-02-03 11:36:04 51°21.291 3°0.642 89.4 3.6 72 13.4
2004-02-03 11:37:04 51°21.31 3°0.733 87.6 3.6 71 13.3
2004-02-03 11:38:03 51°21.331 3°0.822 85.6 3.7 71 13.3
2004-02-03 11:39:04 51°21.352 3°0.911 88.2 3.4 72 13.4
2004-02-03 11:40:04 51°21.37 3°1 88.8 3.5 72 13.3
2004-02-03 11:41:04 51°21.39 3°1.09 89.5 3.5 71 13.3
2004-02-03 11:42:04 51°21.408 3°1.181 90 3.6 73 13.3
2004-02-03 11:43:04 51°21.428 3°1.274 89.9 3.7 71 13.2
2004-02-03 11:44:04 51°21.446 3°1.366 91.4 3.7 70 13.2
2004-02-03 11:45:04 51°21.463 3°1.459 93.4 3.7 73 13.2
2004-02-03 11:46:04 51°21.479 3°1.552 93.6 3.6 74 13.3
2004-02-03 11:47:04 51°21.496 3°1.643 96 3.6 75 13.2
2004-02-03 11:48:04 51°21.511 3°1.735 96 3.6 73 13.3
2004-02-03 11:49:03 51°21.527 3°1.825 94.2 3.6 74 13.4
2004-02-03 11:50:03 51°21.543 3°1.917 91.1 3.6 72 13.2
2004-02-03 11:51:04 51°21.564 3°2.009 87.8 3.6 70 13.4
2004-02-03 11:52:04 51°21.585 3°2.099 87 3.5 69 13.4
2004-02-03 11:53:04 51°21.606 3°2.188 87.1 3.6 68 13.2
2004-02-03 11:54:04 51°21.626 3°2.275 87.6 3.4 71 13.5
2004-02-03 11:55:04 51°21.645 3°2.353 94.6 2.9 68 13.3
2004-02-03 11:56:04 51°21.661 3°2.417 104.6 2.4 70 13.4
2004-02-03 11:57:04 51°21.673 3°2.48 117.9 2.9 87 13.4
2004-02-03 11:58:04 51°21.649 3°2.55 172.1 2.8 143 13.3
2004-02-03 11:59:04 51°21.617 3°2.544 230.1 2.1 231 13.3
2004-02-03 12:00:04 51°21.611 3°2.481 254.9 2.3 269 13.4
2004-02-03 12:01:04 51°21.614 3°2.428 256.8 1.9 280 13.4
2004-02-03 12:02:04 51°21.623 3°2.38 266.2 2.1 292 13.3
2004-02-03 12:03:04 51°21.638 3°2.329 269.4 2.1 295 13.4
2004-02-03 12:04:04 51°21.655 3°2.283 271.3 2 304 13.3
2004-02-03 12:05:04 51°21.676 3°2.237 278.2 2.1 314 13.2
2004-02-03 12:06:04 51°21.701 3°2.193 281 2.3 309 13.2
2004-02-03 12:07:04 51°21.729 3°2.145 284.2 2.4 315 13.4
2004-02-03 12:08:04 51°21.761 3°2.1 293.4 2.7 320 13.4
2004-02-03 12:09:04 51°21.801 3°2.061 304.1 2.9 333 13.4
2004-02-03 12:10:04 51°21.847 3°2.03 312 3.1 339 13.3
2004-02-03 12:11:04 51°21.896 3°1.999 315.8 3.2 341 13.5
2004-02-03 12:12:04 51°21.952 3°1.975 330.2 3.7 349 13.4
2004-02-03 12:13:04 51°22.011 3°1.965 340.8 3.4 354 13.4
2004-02-03 12:14:04 51°22.071 3°1.975 359.2 3.7 11 13.3
2004-02-03 12:15:04 51°22.132 3°2.007 14.1 3.9 21 13.2
2004-02-03 12:16:04 51°22.191 3°2.057 29.7 3.9 31 13.2
2004-02-03 12:17:04 51°22.239 3°2.121 46.6 3.7 43 13.3
2004-02-03 12:18:04 51°22.278 3°2.195 60.1 3.7 51 13
2004-02-03 12:19:04 51°22.308 3°2.274 77.4 3.4 64 13.4
2004-02-03 12:20:04 51°22.33 3°2.353 87.3 3.2 68 13.3
2004-02-03 12:21:04 51°22.35 3°2.43 90.6 3.1 71 13.2
2004-02-03 12:22:04 51°22.368 3°2.51 91.7 3.3 71 13.3
2004-02-03 12:23:04 51°22.389 3°2.6 83.7 3.8 67 13.2
2004-02-03 12:24:04 51°22.411 3°2.697 93.6 3.8 76 12.8
2004-02-03 12:25:04 51°22.419 3°2.794 110.4 3.6 85 13.2
2004-02-03 12:26:04 51°22.415 3°2.883 127.2 3.3 98 13.3
2004-02-03 12:27:04 51°22.404 3°2.964 138.1 3.1 107 13.2
2004-02-03 12:28:04 51°22.387 3°3.035 147.3 2.8 115 13
2004-02-03 12:29:04 51°22.369 3°3.101 152.9 2.4 110 13.3
2004-02-03 12:30:04 51°22.366 3°3.151 153.4 1.8 88 13
2004-02-03 12:31:04 51°22.373 3°3.194 152.8 1.5 73 13.5
2004-02-03 12:32:04 51°22.345 3°3.232 194.7 3.3 184 13.1
2004-02-03 12:33:04 51°22.305 3°3.127 251.1 6.2 252 13.2
2004-02-03 12:34:04 51°22.257 3°2.875 252.5 11.8 250 13.1
2004-02-03 12:35:04 51°22.183 3°2.571 251.4 12.4 249 12.9
2004-02-03 12:36:04 51°22.094 3°2.275 245.8 12.4 244 13.2
2004-02-03 12:37:04 51°22.002 3°1.982 245.4 12.4 243 13.1
2004-02-03 12:38:04 51°21.909 3°1.687 246 12.3 243 13
2004-02-03 12:39:04 51°21.818 3°1.389 246.4 12.6 244 12.9
2004-02-03 12:40:04 51°21.726 3°1.091 246 12.6 244 12.9
2004-02-03 12:41:04 51°21.635 3°0.791 246 12.6 244 12.9
2004-02-03 12:42:04 51°21.542 3°0.492 246 12.6 244 12.9
2004-02-03 12:43:04 51°21.449 3°0.194 246.2 12.5 244 12.9
2004-02-03 12:44:04 51°21.357 2°59.894 246.1 12.4 244 12.8
2004-02-03 12:45:04 51°21.265 2°59.594 246.2 12.7 244 12.9
2004-02-03 12:46:04 51°21.173 2°59.291 246 12.4 244 12.9
2004-02-03 12:47:04 51°21.082 2°58.991 246.2 12.6 243 13
2004-02-03 12:48:04 51°20.99 2°58.692 246 12.6 244 13.2
2004-02-03 12:49:04 51°20.898 2°58.39 246.7 12.6 244 13.2
2004-02-03 12:50:04 51°20.805 2°58.085 246.3 12.8 244 13.3
2004-02-03 12:51:04 51°20.713 2°57.786 246.1 12.4 244 13.4
2004-02-03 12:52:04 51°20.622 2°57.486 245.6 12.4 243 13.6
2004-02-03 12:53:04 51°20.53 2°57.184 245.9 12.7 244 13.6
2004-02-03 12:54:04 51°20.438 2°56.88 246 12.8 244 13.6
2004-02-03 12:55:04 51°20.346 2°56.578 245.5 12.5 244 13.7
2004-02-03 12:56:04 51°20.255 2°56.275 245.8 12.4 244 13.5
2004-02-03 12:57:04 51°20.165 2°55.976 247 12.7 244 13.7
2004-02-03 12:58:04 51°20.075 2°55.673 246.7 12.7 244 13.9
2004-02-03 12:59:04 51°19.985 2°55.372 246.4 12.5 245 13.9
2004-02-03 13:00:04 51°19.894 2°55.069 246.3 12.7 244 14
2004-02-03 13:01:04 51°19.804 2°54.767 246.2 12.6 244 14.2
2004-02-03 13:02:04 51°19.714 2°54.464 246.5 12.5 245 14.1
2004-02-03 13:03:04 51°19.625 2°54.161 246.2 12.6 244 13.7
2004-02-03 13:04:04 51°19.534 2°53.853 246.2 12.9 245 13.7
2004-02-03 13:05:04 51°19.442 2°53.547 246.2 12.7 245 14.1
2004-02-03 13:06:04 51°19.351 2°53.24 246 12.6 244 14.1
2004-02-03 13:07:04 51°19.261 2°52.93 246.4 12.9 245 14.5
2004-02-03 13:08:04 51°19.169 2°52.622 246.2 12.9 245 14.6
2004-02-03 13:09:04 51°19.079 2°52.314 246.8 12.8 246 15.1
2004-02-03 13:10:04 51°18.988 2°52.004 246.7 12.9 245 15.4
2004-02-03 13:11:04 51°18.897 2°51.695 246 12.8 245 15.4
2004-02-03 13:12:04 51°18.791 2°51.402 233.6 12.7 230 15.3
2004-02-03 13:13:04 51°18.647 2°51.198 216.9 10.4 213 15.3
2004-02-03 13:14:04 51°18.529 2°51.072 231 6.4 231 15.3
2004-02-03 13:15:04 51°18.516 2°50.976 266.3 2 283 15
2004-02-03 13:16:04 51°18.532 2°50.977 276.1 1 15 15.3
2004-02-03 13:17:04 51°18.549 2°50.986 296.1 1.3 20 15.2
2004-02-03 13:18:04 51°18.594 2°50.964 341.4 4.3 349 15.2
2004-02-03 13:19:04 51°18.661 2°50.985 23.8 4.1 25 15.6
2004-02-03 13:20:04 51°18.711 2°51.042 45.7 3.5 42 15.7
2004-02-03 13:21:04 51°18.75 2°51.113 61.2 3.5 54 15.7
2004-02-03 13:22:04 51°18.781 2°51.193 71.4 3.5 62 15.6
2004-02-03 13:23:04 51°18.805 2°51.276 79.2 3.4 66 15.7
2004-02-03 13:24:04 51°18.827 2°51.36 80.5 3.4 68 15.6
2004-02-03 13:25:04 51°18.854 2°51.441 69.9 3.5 59 15.7
2004-02-03 13:26:04 51°18.884 2°51.521 72.6 3.6 62 15.8
2004-02-03 13:27:04 51°18.906 2°51.606 86 3.3 73 15.5
2004-02-03 13:28:04 51°18.919 2°51.692 93.9 3.2 77 15.5
2004-02-03 13:29:04 51°18.93 2°51.777 96.4 3.2 80 15.4
2004-02-03 13:30:04 51°18.94 2°51.861 94.7 3.3 77 15.1
2004-02-03 13:31:04 51°18.951 2°51.946 94.2 3.3 79 15.1
2004-02-03 13:32:04 51°18.965 2°52.031 88 3.3 75 15.1
2004-02-03 13:33:04 51°18.987 2°52.116 79.5 3.4 66 15
2004-02-03 13:34:04 51°19.012 2°52.199 73.4 3.5 63 14.9
2004-02-03 13:35:04 51°19.041 2°52.28 73 3.5 64 14.9
2004-02-03 13:36:04 51°19.064 2°52.365 87.4 3.4 70 14.7
2004-02-03 13:37:04 51°19.075 2°52.45 98.3 3.3 81 14.6
2004-02-03 13:38:04 51°19.084 2°52.538 98.2 3.5 80 14.5
2004-02-03 13:39:04 51°19.095 2°52.631 90.4 3.7 75 14.2
2004-02-03 13:40:04 51°19.116 2°52.727 79.1 3.9 65 14.2
2004-02-03 13:41:04 51°19.14 2°52.82 77.9 3.8 65 14
2004-02-03 13:42:04 51°19.163 2°52.908 81.1 3.5 67 14
2004-02-03 13:43:04 51°19.184 2°52.996 82.1 3.6 69 13.8
2004-02-03 13:44:04 51°19.202 2°53.087 86.3 3.6 72 13.8
2004-02-03 13:45:04 51°19.221 2°53.18 84.9 3.6 73 13.6
2004-02-03 13:46:04 51°19.241 2°53.271 83.3 3.7 69 13.6
2004-02-03 13:47:04 51°19.262 2°53.364 83 3.6 70 13.6
2004-02-03 13:48:04 51°19.284 2°53.456 81 3.7 68 13.5
2004-02-03 13:49:04 51°19.306 2°53.547 84 3.6 72 13.5
2004-02-03 13:50:04 51°19.318 2°53.635 96 3.1 81 13.4
2004-02-03 13:51:04 51°19.324 2°53.7 108.4 2.1 82 13.3
2004-02-03 13:52:04 51°19.327 2°53.751 119.6 1.7 86 13.3
2004-02-03 13:53:04 51°19.33 2°53.792 126.4 1.5 77 13.2
2004-02-03 13:54:04 51°19.329 2°53.831 138.8 1.8 110 13.3
2004-02-03 13:55:04 51°19.294 2°53.863 187.7 2.6 175 13.3
2004-02-03 13:56:04 51°19.25 2°53.839 214.3 2.7 209 13.1
2004-02-03 13:57:04 51°19.214 2°53.794 224.7 2.8 222 13.1
2004-02-03 13:58:04 51°19.18 2°53.755 212.9 2.5 209 12.9
2004-02-03 13:59:04 51°19.146 2°53.721 219.4 2.4 213 13
2004-02-03 14:00:04 51°19.114 2°53.676 226.6 2.7 225 13
2004-02-03 14:01:04 51°19.086 2°53.621 233.5 2.6 235 13
2004-02-03 14:02:04 51°19.064 2°53.569 232.4 2.4 234 12.9
2004-02-03 14:03:04 51°19.038 2°53.519 230 2.3 230 12.7
2004-02-03 14:04:04 51°19.021 2°53.461 245.7 2.3 253 12.7
2004-02-03 14:05:04 51°19.018 2°53.395 260.5 2.6 273 12.6
2004-02-03 14:06:04 51°19.026 2°53.325 267.9 2.6 283 12.7
2004-02-03 14:07:04 51°19.038 2°53.254 270.8 2.7 285 12.7
2004-02-03 14:08:04 51°19.051 2°53.185 273.6 2.9 286 12.7
2004-02-03 14:09:04 51°19.068 2°53.113 277.8 3 291 12.9
2004-02-03 14:10:04 51°19.086 2°53.046 279.4 2.7 295 13.2
2004-02-03 14:11:04 51°19.107 2°52.98 283.6 2.8 298 13.3
2004-02-03 14:12:04 51°19.131 2°52.918 285.9 2.8 303 13.4
2004-02-03 14:13:04 51°19.155 2°52.855 286.1 2.8 300 13.7
2004-02-03 14:14:04 51°19.178 2°52.792 287 3 297 14
2004-02-03 14:15:04 51°19.202 2°52.724 286.5 3 300 14.3
2004-02-03 14:16:04 51°19.227 2°52.662 288.1 2.8 305 14.4
2004-02-03 14:17:04 51°19.254 2°52.602 292.8 2.8 310 14.5
2004-02-03 14:18:04 51°19.284 2°52.539 293.5 3.1 308 15
2004-02-03 14:19:04 51°19.316 2°52.479 296.8 3.2 309 15.3
2004-02-03 14:20:04 51°19.348 2°52.423 298.6 2.9 313 15.3
2004-02-03 14:21:04 51°19.381 2°52.371 299 2.8 313 15.8
2004-02-03 14:22:04 51°19.418 2°52.313 306.9 3 321 15.6
2004-02-03 14:23:04 51°19.459 2°52.27 319.4 2.7 331 15.8
2004-02-03 14:24:04 51°19.503 2°52.238 326.6 3.1 336 16.1
2004-02-03 14:25:04 51°19.556 2°52.206 342.8 3.3 349 16.1
2004-02-03 14:26:04 51°19.599 2°52.2 345.3 2.3 359 16.4
2004-02-03 14:27:04 51°19.632 2°52.199 336.5 1.7 1 16.6
2004-02-03 14:28:04 51°19.671 2°52.167 309 4.6 310 16.7
2004-02-03 14:29:04 51°19.645 2°52.048 211.8 5.6 200 16.2
2004-02-03 14:30:04 51°19.533 2°52.14 153.7 9.8 154 16.1
2004-02-03 14:31:04 51°19.333 2°52.191 175.1 12.9 172 15.4
2004-02-03 14:32:04 51°19.118 2°52.212 181.2 13 180 14.8
2004-02-03 14:33:04 51°18.902 2°52.23 181.1 13.1 178 13.6
2004-02-03 14:34:04 51°18.685 2°52.243 182.8 13 181 12.6
2004-02-03 14:35:04 51°18.471 2°52.255 182.6 12.9 181 11.7
2004-02-03 14:36:04 51°18.255 2°52.264 182.1 12.9 179 11.3
2004-02-03 14:37:04 51°18.04 2°52.274 181.2 12.8 182 10.8
2004-02-03 14:38:04 51°17.823 2°52.285 182 13.2 180 10.7
2004-02-03 14:39:04 51°17.608 2°52.296 183 13 179 10.8
2004-02-03 14:40:04 51°17.393 2°52.311 178.1 13 173 10.5
2004-02-03 14:41:04 51°17.193 2°52.438 151.7 13.1 147 10.2
2004-02-03 14:42:04 51°17.049 2°52.704 134.3 13.3 128 10.5
2004-02-03 14:43:04 51°16.915 2°52.984 131 13.3 127 8.6
2004-02-03 14:44:04 51°16.772 2°53.258 134.7 13.8 130 11.4
2004-02-03 14:45:04 51°16.63 2°53.538 133.5 13.9 131 12.1
2004-02-03 14:46:04 51°16.485 2°53.807 135.5 12.9 131 12.4
2004-02-03 14:47:04 51°16.345 2°54.058 138.1 11.1 137 12
2004-02-03 14:48:04 51°16.268 2°54.227 123.7 5.6 114 12
2004-02-03 14:49:04 51°16.245 2°54.286 162.4 0.8 106 12
2004-02-03 14:50:04 51°16.244 2°54.305 166.8 0.6 93 11.9
2004-02-03 14:51:04 51°16.215 2°54.332 175.5 2.9 162 11.7
2004-02-03 14:52:04 51°16.167 2°54.335 196.2 2.9 189 11.9
2004-02-03 14:53:04 51°16.121 2°54.299 217.2 3.3 215 11.7
2004-02-03 14:54:04 51°16.076 2°54.247 219.1 3.4 214 11.7
2004-02-03 14:55:04 51°16.035 2°54.189 226 3.2 225 11.6
2004-02-03 14:56:04 51°15.998 2°54.132 224.8 3 225 11.5
2004-02-03 14:57:04 51°15.965 2°54.07 232.2 3 231 11.6
2004-02-03 14:58:04 51°15.933 2°54.003 232.7 3.5 233 11.5
2004-02-03 14:59:04 51°15.902 2°53.931 235.1 2.8 236 11.6
2004-02-03 15:00:04 51°15.87 2°53.862 230.4 3.6 230 11.7
2004-02-03 15:01:04 51°15.83 2°53.792 224.6 3.5 225 11.3
2004-02-03 15:02:04 51°15.788 2°53.735 218.4 3.1 219 11.1
2004-02-03 15:03:04 51°15.749 2°53.676 226.3 3.4 226 11.6
2004-02-03 15:04:04 51°15.713 2°53.603 235.1 3.5 239 11.6
2004-02-03 15:05:04 51°15.685 2°53.522 240.6 3.5 244 11.5
2004-02-03 15:06:04 51°15.658 2°53.442 236.3 3.3 237 11.4
2004-02-03 15:07:04 51°15.629 2°53.364 239.2 3.5 240 11.6
2004-02-03 15:08:04 51°15.604 2°53.28 244.5 3.6 249 11.6
2004-02-03 15:09:04 51°15.585 2°53.186 251.6 3.8 256 11.6
2004-02-03 15:10:04 51°15.572 2°53.087 256.1 3.9 260 11.4
2004-02-03 15:11:04 51°15.561 2°52.988 257.6 3.8 260 11.6
2004-02-03 15:12:04 51°15.552 2°52.887 260 4 262 11.6
2004-02-03 15:13:04 51°15.546 2°52.791 263.5 3.5 267 11.7
2004-02-03 15:14:04 51°15.545 2°52.7 266.6 3.5 270 11.9
2004-02-03 15:15:04 51°15.546 2°52.606 268.7 3.5 271 11.7
2004-02-03 15:16:04 51°15.551 2°52.515 277.7 3.5 281 12.1
2004-02-03 15:17:04 51°15.579 2°52.442 320.9 3 319 12.1
2004-02-03 15:18:04 51°15.61 2°52.413 333.6 1.9 332 12.2
2004-02-03 15:19:04 51°15.637 2°52.395 333 2.4 337 12.4
2004-02-03 15:20:04 51°15.691 2°52.38 8.4 3.8 6 12.3
2004-02-03 15:21:04 51°15.744 2°52.433 50.8 3.7 44 12.4
2004-02-03 15:22:04 51°15.778 2°52.506 65.3 3.3 57 12.2
2004-02-03 15:23:04 51°15.8 2°52.582 76.1 3.1 68 12.3
2004-02-03 15:24:04 51°15.814 2°52.659 85.6 3 80 12.3
2004-02-03 15:25:04 51°15.82 2°52.738 92.8 2.9 85 12.1
2004-02-03 15:26:04 51°15.82 2°52.815 101 2.8 93 12
2004-02-03 15:27:04 51°15.812 2°52.889 110.5 2.8 103 12
2004-02-03 15:28:04 51°15.798 2°52.958 117 2.7 113 11.9
2004-02-03 15:29:04 51°15.78 2°53.022 121.4 2.6 116 11.9
2004-02-03 15:30:04 51°15.761 2°53.085 122.1 2.6 118 11.7
2004-02-03 15:31:04 51°15.741 2°53.146 123.6 2.6 117 11.6
2004-02-03 15:32:04 51°15.72 2°53.207 124.1 2.6 121 11.5
2004-02-03 15:33:04 51°15.699 2°53.268 123.4 2.6 119 11.4
2004-02-03 15:34:04 51°15.677 2°53.329 124 2.6 119 11.3
2004-02-03 15:35:04 51°15.656 2°53.388 124.2 2.6 120 11.3
2004-02-03 15:36:04 51°15.635 2°53.449 123.1 2.7 118 11.1
2004-02-03 15:37:04 51°15.613 2°53.51 123.9 2.6 120 11
2004-02-03 15:38:04 51°15.591 2°53.569 124 2.6 120 10.9
2004-02-03 15:39:04 51°15.568 2°53.628 125.1 2.6 123 10.7
2004-02-03 15:40:04 51°15.545 2°53.685 124.5 2.5 123 10.5
2004-02-03 15:41:04 51°15.523 2°53.743 124.4 2.6 124 10.3
2004-02-03 15:42:04 51°15.502 2°53.801 123.6 2.6 121 10.2
2004-02-03 15:43:04 51°15.48 2°53.857 125.7 2.5 123 10.2
2004-02-03 15:44:04 51°15.455 2°53.913 127 2.6 125 10
2004-02-03 15:45:04 51°15.431 2°53.97 125.5 2.6 123 9.9
2004-02-03 15:46:04 51°15.408 2°54.028 125.7 2.6 123 9.7
2004-02-03 15:47:04 51°15.383 2°54.086 125.4 2.6 122 9.5
2004-02-03 15:48:04 51°15.359 2°54.144 124.8 2.6 122 9.3
2004-02-03 15:49:04 51°15.339 2°54.205 129.1 2.6 123 9.2
2004-02-03 15:50:04 51°15.312 2°54.254 145 2.3 145 9.1
2004-02-03 15:51:04 51°15.29 2°54.282 150.6 1.3 136 9.1
2004-02-03 15:52:04 51°15.277 2°54.301 152.6 0.9 132 9
2004-02-03 15:53:04 51°15.269 2°54.315 152.8 0.6 118 8.9
2004-02-03 15:54:04 51°15.247 2°54.341 160 3.2 160 8.7
2004-02-03 15:55:04 51°15.151 2°54.38 170.4 9.7 166 8.9
2004-02-03 15:56:04 51°14.973 2°54.473 159.3 11.7 154 8.2
2004-02-03 15:57:04 51°14.788 2°54.609 152.6 12.2 149 9
2004-02-03 15:58:04 51°14.609 2°54.763 150.7 12 147 9.2
2004-02-03 15:59:04 51°14.445 2°54.957 141.4 12.2 137 9.7